Terminal Aerodrome Forecast
Issued by NWS

Home | Current Version | Previous Version | Text Only | Print | Product List | Glossary On
Versions: 1 2 3 4 5 6 7 8 9 10 11 12 13
000
FTUS44 KLIX 011100 RRA
TAFMSY
TAF
KMSY 011144Z 0112/0212 00000KT P6SM FEW025 BKN160
     FM011800 05006KT 5SM -TSRA BKN035CB OVC090
     FM012100 13007KT 6SM -SHRA OVC070
     FM020100 VRB03KT P6SM BKN080=

USA.gov is the U.S. government's official web portal to all federal, state and local government web resources and services.